CMA CGM Musca — 2CAC8 — position and weather

sailwx.info

Track history (hours):
 
Tides and Currents Weather Stations Pressure Air Temp Water Temp Dewpoint Dewpoint Depression Visibility Wind Speed Wind Dir Waves Ship Positions

CMA CGM Musca

Last reported at 2014-Jul-24 10:05 UTC. Time now 2014-Jul-24 23:02 UTC.
Position N 35°57' E 120°52'.

Length 347 m; draft 13.7 m.

Type: Ship (hazmat cat A). MMSI: 235070914.

Date/timePositionNaut miles runAvg speedWind from/ knotsBaromVisibWave heightAir tempDewpointWater temp
2014-Jul-24 10:05N 35°57' E 120°52'4 8.1
2014-Jul-24 09:33N 35°57' E 120°47'  
2014-Jul-21 19:51N 36°19' E 123°44'1519.6
2014-Jul-21 19:05N 36°32' E 123°35'1819.2
2014-Jul-21 18:08N 36°47' E 123°23'3018.9
2014-Jul-21 16:32N 37°14' E 123°06'2219.1
2014-Jul-21 15:22N 37°34' E 122°53'2619.8
2014-Jul-21 14:04N 37°57' E 122°37'5519.5
2014-Jul-21 11:16N 38°44' E 122°03'1216.7
2014-Jul-21 10:33N 38°55' E 121°55'4 0.1
2014-Jul-20 06:31N 38°58' E 121°57'9 9.8
2014-Jul-20 05:33N 38°49' E 121°56'2 1.6
2014-Jul-20 04:33N 38°47' E 121°57'0 0.0
2014-Jul-20 03:33N 38°47' E 121°57'0 0.0
2014-Jul-20 02:33N 38°47' E 121°57'0 0.1
2014-Jul-20 01:32N 38°47' E 121°57'0 0.1
2014-Jul-20 00:32N 38°47' E 121°57'0 0.0
2014-Jul-19 23:19N 38°47' E 121°57'0 0.0
2014-Jul-19 22:25N 38°47' E 121°57'0 0.0
2014-Jul-19 21:30N 38°47' E 121°57'0 0.0
2014-Jul-19 20:30N 38°47' E 121°57'0 0.0
2014-Jul-19 19:24N 38°47' E 121°57'0 0.1
2014-Jul-19 17:23N 38°47' E 121°57'0 0.0
2014-Jul-19 13:27N 38°48' E 121°58'0 0.1
2014-Jul-19 11:08N 38°47' E 121°57'0 0.0
2014-Jul-19 10:32N 38°47' E 121°57'0 0.0
2014-Jul-19 09:31N 38°47' E 121°57'0 0.0
2014-Jul-19 07:31N 38°47' E 121°57'7 7.7
2014-Jul-19 06:33N 38°43' E 121°50'1313.6
2014-Jul-19 05:34N 38°32' E 121°39'1414.1
2014-Jul-19 04:33N 38°30' E 121°21'12615.4
2014-Jul-18 20:24N 38°48' E 118°42'1416.9
2014-Jul-18 19:34N 38°50' E 118°24'1312.6
2014-Jul-18 18:33N 38°54' E 118°08'1010.3
2014-Jul-18 17:34N 38°57' E 117°56'7 7.0
2014-Jul-18 16:34N 38°59' E 117°47'0 0.1
2014-Jul-18 15:33N 38°59' E 117°47'0 0.0
2014-Jul-18 14:33N 38°59' E 117°47'0 0.0
2014-Jul-18 13:32N 38°59' E 117°47'0 0.0
2014-Jul-18 12:32N 38°59' E 117°47'0 0.0
2014-Jul-18 11:32N 38°59' E 117°47'0 0.0
2014-Jul-18 10:31N 38°59' E 117°47'0 0.0
2014-Jul-18 09:31N 38°59' E 117°47'0 0.0
2014-Jul-18 08:30N 38°59' E 117°47'0 0.0
2014-Jul-18 07:33N 38°59' E 117°47'0 0.0
2014-Jul-18 06:32N 38°59' E 117°47'0 0.0
2014-Jul-18 05:32N 38°59' E 117°47'0 0.0
2014-Jul-18 04:31N 38°59' E 117°47'0 0.0
2014-Jul-18 03:31N 38°59' E 117°47'0 0.0
2014-Jul-18 02:31N 38°59' E 117°47'0 0.0
2014-Jul-18 01:33N 38°59' E 117°47'0 0.0
2014-Jul-18 00:30N 38°59' E 117°47'0 0.0
2014-Jul-17 23:32N 38°59' E 117°47'0 0.0
2014-Jul-17 22:29N 38°59' E 117°47'0 0.0
2014-Jul-17 21:31N 38°59' E 117°47'0 0.0
2014-Jul-17 20:31N 38°59' E 117°47'0 0.0
2014-Jul-17 19:31N 38°59' E 117°47'0 0.0
2014-Jul-17 18:33N 38°59' E 117°47'0 0.0
2014-Jul-17 17:30N 38°59' E 117°47'0 0.0
2014-Jul-17 16:31N 38°59' E 117°47'0 0.0
2014-Jul-17 15:31N 38°59' E 117°47'0 0.0
2014-Jul-17 14:33N 38°59' E 117°47'0 0.0
2014-Jul-17 13:33N 38°59' E 117°47'0 0.0
2014-Jul-17 12:33N 38°59' E 117°47'0 0.0
2014-Jul-17 11:32N 38°59' E 117°47'0 0.0
2014-Jul-17 10:32N 38°59' E 117°47'0 0.0
2014-Jul-17 09:32N 38°59' E 117°47'0 0.0
2014-Jul-17 08:31N 38°59' E 117°47'0 0.0
2014-Jul-17 07:34N 38°59' E 117°47'0 0.0
2014-Jul-17 06:31N 38°59' E 117°47'0 0.0
2014-Jul-17 05:31N 38°59' E 117°47'0 0.0
2014-Jul-17 04:33N 38°59' E 117°47'0 0.0
2014-Jul-17 03:33N 38°59' E 117°47'0 0.0
2014-Jul-17 02:32N 38°59' E 117°47'0 0.0
2014-Jul-17 01:32N 38°59' E 117°47'0 0.0
2014-Jul-17 00:31N 38°59' E 117°47'0 0.4
2014-Jul-16 23:33N 38°59' E 117°48'1010.5
2014-Jul-16 22:33N 38°56' E 118°01'9 9.1
2014-Jul-16 21:33N 38°53' E 118°12'3 2.6
2014-Jul-16 20:33N 38°50' E 118°12'1 1.0
2014-Jul-16 19:33N 38°51' E 118°11'0 0.0
2014-Jul-16 18:33N 38°51' E 118°11'0 0.1
2014-Jul-16 17:33N 38°51' E 118°11'1 0.7
2014-Jul-16 16:33N 38°51' E 118°12'2210.9
2014-Jul-16 14:30N 38°49' E 118°41'8812.6
2014-Jul-16 07:29N 38°41' E 120°34'2713.5
2014-Jul-16 05:29N 38°31' E 121°06'1414.2
2014-Jul-16 04:31N 38°24' E 121°21'1414.3
2014-Jul-16 03:30N 38°17' E 121°38'3113.9
2014-Jul-16 01:17N 38°03' E 122°13'1214.1
2014-Jul-16 00:25N 37°58' E 122°26'  
Track history (hours):
 
Tides and Currents Weather Stations Pressure Air Temp Water Temp Dewpoint Dewpoint Depression Visibility Wind Speed Wind Dir Waves Ship Positions

CMA CGM Musca

Last reported at 2014-Jul-24 10:05 UTC. Time now 2014-Jul-24 23:02 UTC.
Position N 35°57' E 120°52'.

Length 347 m; draft 13.7 m.

Type: Ship (hazmat cat A). MMSI: 235070914.

Date/timePositionNaut miles runAvg speedWind from/ knotsBaromVisibWave heightAir tempDewpointWater temp
2014-Jul-24 10:05N 35°57' E 120°52'4 8.1
2014-Jul-24 09:33N 35°57' E 120°47'  
2014-Jul-21 19:51N 36°19' E 123°44'1519.6
2014-Jul-21 19:05N 36°32' E 123°35'1819.2
2014-Jul-21 18:08N 36°47' E 123°23'3018.9
2014-Jul-21 16:32N 37°14' E 123°06'2219.1
2014-Jul-21 15:22N 37°34' E 122°53'2619.8
2014-Jul-21 14:04N 37°57' E 122°37'5519.5
2014-Jul-21 11:16N 38°44' E 122°03'1216.7
2014-Jul-21 10:33N 38°55' E 121°55'4 0.1
2014-Jul-20 06:31N 38°58' E 121°57'9 9.8
2014-Jul-20 05:33N 38°49' E 121°56'2 1.6
2014-Jul-20 04:33N 38°47' E 121°57'0 0.0
2014-Jul-20 03:33N 38°47' E 121°57'0 0.0
2014-Jul-20 02:33N 38°47' E 121°57'0 0.1
2014-Jul-20 01:32N 38°47' E 121°57'0 0.1
2014-Jul-20 00:32N 38°47' E 121°57'0 0.0
2014-Jul-19 23:19N 38°47' E 121°57'0 0.0
2014-Jul-19 22:25N 38°47' E 121°57'0 0.0
2014-Jul-19 21:30N 38°47' E 121°57'0 0.0
2014-Jul-19 20:30N 38°47' E 121°57'0 0.0
2014-Jul-19 19:24N 38°47' E 121°57'0 0.1
2014-Jul-19 17:23N 38°47' E 121°57'0 0.0
2014-Jul-19 13:27N 38°48' E 121°58'0 0.1
2014-Jul-19 11:08N 38°47' E 121°57'0 0.0
2014-Jul-19 10:32N 38°47' E 121°57'0 0.0
2014-Jul-19 09:31N 38°47' E 121°57'0 0.0
2014-Jul-19 07:31N 38°47' E 121°57'7 7.7
2014-Jul-19 06:33N 38°43' E 121°50'1313.6
2014-Jul-19 05:34N 38°32' E 121°39'1414.1
2014-Jul-19 04:33N 38°30' E 121°21'12615.4
2014-Jul-18 20:24N 38°48' E 118°42'1416.9
2014-Jul-18 19:34N 38°50' E 118°24'1312.6
2014-Jul-18 18:33N 38°54' E 118°08'1010.3
2014-Jul-18 17:34N 38°57' E 117°56'7 7.0
2014-Jul-18 16:34N 38°59' E 117°47'0 0.1
2014-Jul-18 15:33N 38°59' E 117°47'0 0.0
2014-Jul-18 14:33N 38°59' E 117°47'0 0.0
2014-Jul-18 13:32N 38°59' E 117°47'0 0.0
2014-Jul-18 12:32N 38°59' E 117°47'0 0.0
2014-Jul-18 11:32N 38°59' E 117°47'0 0.0
2014-Jul-18 10:31N 38°59' E 117°47'0 0.0
2014-Jul-18 09:31N 38°59' E 117°47'0 0.0
2014-Jul-18 08:30N 38°59' E 117°47'0 0.0
2014-Jul-18 07:33N 38°59' E 117°47'0 0.0
2014-Jul-18 06:32N 38°59' E 117°47'0 0.0
2014-Jul-18 05:32N 38°59' E 117°47'0 0.0
2014-Jul-18 04:31N 38°59' E 117°47'0 0.0
2014-Jul-18 03:31N 38°59' E 117°47'0 0.0
2014-Jul-18 02:31N 38°59' E 117°47'0 0.0
2014-Jul-18 01:33N 38°59' E 117°47'0 0.0
2014-Jul-18 00:30N 38°59' E 117°47'0 0.0
2014-Jul-17 23:32N 38°59' E 117°47'0 0.0
2014-Jul-17 22:29N 38°59' E 117°47'0 0.0
2014-Jul-17 21:31N 38°59' E 117°47'0 0.0
2014-Jul-17 20:31N 38°59' E 117°47'0 0.0
2014-Jul-17 19:31N 38°59' E 117°47'0 0.0
2014-Jul-17 18:33N 38°59' E 117°47'0 0.0
2014-Jul-17 17:30N 38°59' E 117°47'0 0.0
2014-Jul-17 16:31N 38°59' E 117°47'0 0.0
2014-Jul-17 15:31N 38°59' E 117°47'0 0.0
2014-Jul-17 14:33N 38°59' E 117°47'0 0.0
2014-Jul-17 13:33N 38°59' E 117°47'0 0.0
2014-Jul-17 12:33N 38°59' E 117°47'0 0.0
2014-Jul-17 11:32N 38°59' E 117°47'0 0.0
2014-Jul-17 10:32N 38°59' E 117°47'0 0.0
2014-Jul-17 09:32N 38°59' E 117°47'0 0.0
2014-Jul-17 08:31N 38°59' E 117°47'0 0.0
2014-Jul-17 07:34N 38°59' E 117°47'0 0.0
2014-Jul-17 06:31N 38°59' E 117°47'0 0.0
2014-Jul-17 05:31N 38°59' E 117°47'0 0.0
2014-Jul-17 04:33N 38°59' E 117°47'0 0.0
2014-Jul-17 03:33N 38°59' E 117°47'0 0.0
2014-Jul-17 02:32N 38°59' E 117°47'0 0.0
2014-Jul-17 01:32N 38°59' E 117°47'0 0.0
2014-Jul-17 00:31N 38°59' E 117°47'0 0.4
2014-Jul-16 23:33N 38°59' E 117°48'1010.5
2014-Jul-16 22:33N 38°56' E 118°01'9 9.1
2014-Jul-16 21:33N 38°53' E 118°12'3 2.6
2014-Jul-16 20:33N 38°50' E 118°12'1 1.0
2014-Jul-16 19:33N 38°51' E 118°11'0 0.0
2014-Jul-16 18:33N 38°51' E 118°11'0 0.1
2014-Jul-16 17:33N 38°51' E 118°11'1 0.7
2014-Jul-16 16:33N 38°51' E 118°12'2210.9
2014-Jul-16 14:30N 38°49' E 118°41'8812.6
2014-Jul-16 07:29N 38°41' E 120°34'2713.5
2014-Jul-16 05:29N 38°31' E 121°06'1414.2
2014-Jul-16 04:31N 38°24' E 121°21'1414.3
2014-Jul-16 03:30N 38°17' E 121°38'3113.9
2014-Jul-16 01:17N 38°03' E 122°13'1214.1
2014-Jul-16 00:25N 37°58' E 122°26'  

Dump ship's entire track history